Time;durP1;ratioP1;P1;durP2;ratioP2;P2;SDS_P1;SDS_P2;PMS_P1;PMS_P2;Temp;Humidity;BMP_temperature;BMP_pressure;BME280_temperature;BME280_humidity;BME280_pressure;Samples;Min_cycle;Max_cycle;Signal;HPM_P1;HPM_P2
2020/12/05 00:00:35;;;;;;;36.50;17.60;;;4.40;99.90;;;;;;4422497;32;20344;-74
2020/12/05 00:03:01;;;;;;;34.13;17.50;;;4.40;99.90;;;;;;4414325;32;20211;-75
2020/12/05 00:05:27;;;;;;;32.00;16.70;;;4.40;99.90;;;;;;4420651;32;20178;-75
2020/12/05 00:07:54;;;;;;;33.20;16.00;;;4.50;99.90;;;;;;4418178;32;20525;-74
2020/12/05 00:10:20;;;;;;;34.47;16.20;;;4.60;99.90;;;;;;4415387;32;20577;-74
2020/12/05 00:12:47;;;;;;;33.70;16.43;;;4.60;99.90;;;;;;4422844;32;20159;-76
2020/12/05 00:15:13;;;;;;;33.60;16.40;;;4.50;99.90;;;;;;4413740;32;20406;-73
2020/12/05 00:17:39;;;;;;;32.73;16.60;;;4.60;99.90;;;;;;4419125;32;20155;-74
2020/12/05 00:20:06;;;;;;;30.40;16.13;;;4.60;99.90;;;;;;4419152;32;20200;-73
2020/12/05 00:22:32;;;;;;;29.77;15.87;;;4.60;99.90;;;;;;4413606;32;20152;-75
2020/12/05 00:24:58;;;;;;;32.90;16.50;;;4.50;99.90;;;;;;4424909;32;20198;-75
2020/12/05 00:27:25;;;;;;;36.43;16.70;;;4.60;99.90;;;;;;4420002;32;20154;-73
2020/12/05 00:29:51;;;;;;;33.03;16.73;;;4.60;99.90;;;;;;4425135;32;20190;-74
2020/12/05 00:32:18;;;;;;;33.20;16.63;;;4.60;99.90;;;;;;4424646;32;20163;-74
2020/12/05 00:34:44;;;;;;;31.90;15.97;;;4.50;99.90;;;;;;4423819;32;20255;-75
2020/12/05 00:37:10;;;;;;;32.03;16.33;;;4.60;99.90;;;;;;4414735;32;20151;-73
2020/12/05 00:39:37;;;;;;;34.10;15.73;;;4.50;99.90;;;;;;4419074;32;20175;-73
2020/12/05 00:42:04;;;;;;;32.63;15.33;;;4.50;99.90;;;;;;4420253;32;20195;-73
2020/12/05 00:44:30;;;;;;;31.53;15.87;;;4.50;99.90;;;;;;4413581;32;20147;-74
2020/12/05 00:46:57;;;;;;;30.87;15.43;;;4.50;99.90;;;;;;4422490;32;20169;-73
2020/12/05 00:49:24;;;;;;;32.53;16.10;;;4.40;99.90;;;;;;4415627;32;20182;-72
2020/12/05 00:51:50;;;;;;;30.17;15.37;;;4.50;99.90;;;;;;4419100;32;20160;-72
2020/12/05 00:54:16;;;;;;;28.80;15.33;;;4.50;99.90;;;;;;4419732;32;20218;-73
2020/12/05 00:56:43;;;;;;;33.43;15.43;;;4.50;99.90;;;;;;4412067;32;20179;-73
2020/12/05 00:59:10;;;;;;;32.57;14.80;;;4.50;99.90;;;;;;4423318;32;20169;-74
2020/12/05 01:01:36;;;;;;;29.70;15.50;;;4.50;99.90;;;;;;4415588;32;20159;-75
2020/12/05 01:04:03;;;;;;;31.50;15.37;;;4.50;99.90;;;;;;4416253;32;20186;-73
2020/12/05 01:06:29;;;;;;;31.70;15.03;;;4.40;99.90;;;;;;4421334;32;20177;-75
2020/12/05 01:08:56;;;;;;;31.13;15.27;;;4.50;99.90;;;;;;4413720;32;20177;-75
2020/12/05 01:11:23;;;;;;;29.77;15.40;;;4.50;99.90;;;;;;4420253;32;20198;-75
2020/12/05 01:13:49;;;;;;;33.63;15.60;;;4.50;99.90;;;;;;4416715;32;20154;-74
2020/12/05 01:16:17;;;;;;;29.57;14.63;;;4.50;99.90;;;;;;4414636;32;20217;-76
2020/12/05 01:18:44;;;;;;;26.57;13.87;;;4.50;99.90;;;;;;4421559;32;20197;-75
2020/12/05 01:21:12;;;;;;;30.07;14.57;;;4.60;99.90;;;;;;4412193;32;20147;-75
2020/12/05 01:23:39;;;;;;;27.77;13.77;;;4.60;99.90;;;;;;4420096;32;20158;-72
2020/12/05 01:26:06;;;;;;;27.90;14.40;;;4.60;99.90;;;;;;4419795;32;20173;-72
2020/12/05 01:28:33;;;;;;;30.97;15.40;;;4.60;99.90;;;;;;4412784;32;20202;-72
2020/12/05 01:31:00;;;;;;;30.10;15.13;;;4.60;99.90;;;;;;4422678;32;20213;-71
2020/12/05 01:33:27;;;;;;;30.03;14.77;;;4.60;99.90;;;;;;4415822;32;20160;-71
2020/12/05 01:35:53;;;;;;;27.37;14.73;;;4.60;99.90;;;;;;4417863;32;20222;-74
2020/12/05 01:38:19;;;;;;;29.60;14.50;;;4.60;99.90;;;;;;4419370;32;20419;-73
2020/12/05 01:40:53;;;;;;;27.63;14.10;;;4.50;99.90;;;;;;4411791;32;20205;-74
2020/12/05 01:43:20;;;;;;;28.80;14.43;;;4.50;99.90;;;;;;4421762;32;20175;-73
2020/12/05 01:45:50;;;;;;;26.80;14.13;;;4.60;99.90;;;;;;4416314;32;20179;-74
2020/12/05 01:48:19;;;;;;;27.57;13.37;;;4.60;99.90;;;;;;4414771;32;20462;-74
2020/12/05 01:50:47;;;;;;;26.70;14.20;;;4.60;99.90;;;;;;4421742;32;20218;-75
2020/12/05 01:53:14;;;;;;;28.20;14.20;;;4.60;99.90;;;;;;4412552;32;20481;-75
2020/12/05 01:55:45;;;;;;;27.27;13.50;;;4.60;99.90;;;;;;4419232;32;20186;-73
2020/12/05 01:58:13;;;;;;;26.87;13.97;;;4.60;99.90;;;;;;4420287;32;20150;-73
2020/12/05 02:00:40;;;;;;;28.13;14.20;;;4.60;99.90;;;;;;4411672;32;20152;-74
2020/12/05 02:03:07;;;;;;;28.33;13.40;;;4.60;99.90;;;;;;4411806;32;20150;-73
2020/12/05 02:05:48;;;;;;;27.00;13.43;;;4.60;99.90;;;;;;4424198;32;20211;-73
2020/12/05 02:08:23;;;;;;;27.03;13.40;;;4.60;99.90;;;;;;4414458;32;20408;-73
2020/12/05 02:10:50;;;;;;;26.13;13.20;;;4.70;99.90;;;;;;4417490;32;20150;-74
2020/12/05 02:13:43;;;;;;;28.17;13.77;;;4.70;99.90;;;;;;4424141;32;20171;-73
2020/12/05 02:16:10;;;;;;;26.50;13.27;;;4.60;99.90;;;;;;4425138;32;20155;-73
2020/12/05 02:18:37;;;;;;;28.30;13.97;;;4.70;99.90;;;;;;4424172;32;20211;-74
2020/12/05 02:21:05;;;;;;;26.70;14.13;;;4.60;99.90;;;;;;4423582;32;20241;-75
2020/12/05 02:23:32;;;;;;;27.83;13.73;;;4.60;99.90;;;;;;4420117;32;20171;-74
2020/12/05 02:26:09;;;;;;;28.80;13.50;;;4.60;99.90;;;;;;4417096;32;20159;-74
2020/12/05 02:28:35;;;;;;;26.00;12.60;;;4.60;99.90;;;;;;4412160;32;20170;-73
2020/12/05 02:31:02;;;;;;;25.73;13.60;;;4.60;99.90;;;;;;4421155;32;20155;-74
2020/12/05 02:33:28;;;;;;;25.73;13.70;;;4.60;99.90;;;;;;4415140;32;20155;-74
2020/12/05 02:35:55;;;;;;;28.97;13.73;;;4.70;99.90;;;;;;4416087;32;20598;-74
2020/12/05 02:38:57;;;;;;;25.70;12.50;;;4.60;99.90;;;;;;4419355;32;20508;-74
2020/12/05 02:41:24;;;;;;;25.93;13.43;;;4.70;99.90;;;;;;4405680;32;20275;-73
2020/12/05 02:43:51;;;;;;;25.17;13.53;;;4.70;99.90;;;;;;4423808;32;20512;-73
2020/12/05 02:46:18;;;;;;;26.10;13.37;;;4.70;99.90;;;;;;4413688;32;20215;-72
2020/12/05 02:48:44;;;;;;;27.03;13.73;;;4.70;99.90;;;;;;4412649;32;20190;-73
2020/12/05 02:51:10;;;;;;;28.20;12.83;;;4.70;99.90;;;;;;4423863;32;20168;-73
2020/12/05 02:53:37;;;;;;;26.17;13.17;;;4.80;99.90;;;;;;4423881;32;20222;-74
2020/12/05 02:56:03;;;;;;;26.43;13.17;;;4.80;99.90;;;;;;4423973;32;20205;-73
2020/12/05 02:58:29;;;;;;;23.67;12.40;;;4.80;99.90;;;;;;4426489;32;20163;-72
2020/12/05 03:00:56;;;;;;;25.03;13.03;;;4.90;99.90;;;;;;4424805;32;20170;-73
2020/12/05 03:03:22;;;;;;;25.40;13.17;;;4.90;99.90;;;;;;4422143;32;20147;-73
2020/12/05 03:05:49;;;;;;;24.50;12.40;;;4.90;99.90;;;;;;4418516;32;20207;-73
2020/12/05 03:08:15;;;;;;;25.73;13.10;;;4.90;99.90;;;;;;4416564;32;20155;-73
2020/12/05 03:10:42;;;;;;;23.40;12.93;;;4.90;99.90;;;;;;4423836;32;20143;-73
2020/12/05 03:13:08;;;;;;;25.73;12.33;;;4.90;99.90;;;;;;4415689;32;20165;-73
2020/12/05 03:15:34;;;;;;;26.47;13.13;;;4.90;99.90;;;;;;4422209;32;20270;-74
2020/12/05 03:18:01;;;;;;;25.70;13.30;;;4.90;99.90;;;;;;4419635;32;20154;-73
2020/12/05 03:20:27;;;;;;;25.83;12.93;;;4.90;99.90;;;;;;4415282;32;20174;-73
2020/12/05 03:22:54;;;;;;;26.97;12.80;;;4.90;99.90;;;;;;4423775;32;20207;-73
2020/12/05 03:25:20;;;;;;;22.23;12.23;;;4.90;99.90;;;;;;4415212;32;20155;-72
2020/12/05 03:27:47;;;;;;;25.37;13.13;;;4.90;99.90;;;;;;4419334;32;20155;-73
2020/12/05 03:30:13;;;;;;;25.50;12.93;;;4.90;99.90;;;;;;4420919;32;20197;-72
2020/12/05 03:32:41;;;;;;;24.00;12.07;;;5.00;99.90;;;;;;4413331;32;20167;-73
2020/12/05 03:35:07;;;;;;;26.10;13.70;;;5.00;99.90;;;;;;4413793;32;20224;-73
2020/12/05 03:37:34;;;;;;;25.90;12.83;;;5.00;99.90;;;;;;4427600;32;20151;-72
2020/12/05 03:40:01;;;;;;;22.90;13.00;;;5.00;99.90;;;;;;4417457;32;20186;-72
2020/12/05 03:42:27;;;;;;;24.77;12.60;;;5.00;99.90;;;;;;4421911;32;20202;-73
2020/12/05 03:44:54;;;;;;;22.83;12.23;;;5.00;99.90;;;;;;4413315;32;20171;-74
2020/12/05 03:47:20;;;;;;;24.90;13.03;;;4.90;99.90;;;;;;4421788;32;20212;-74
2020/12/05 03:49:47;;;;;;;24.30;13.20;;;5.00;99.90;;;;;;4417936;32;20158;-75
2020/12/05 03:52:15;;;;;;;26.67;13.27;;;5.00;99.90;;;;;;4417656;32;20170;-75
2020/12/05 03:54:42;;;;;;;22.07;12.50;;;5.00;99.90;;;;;;4423394;32;20151;-75
2020/12/05 03:57:09;;;;;;;26.33;13.53;;;5.00;99.90;;;;;;4413010;32;20214;-75
2020/12/05 03:59:35;;;;;;;23.33;12.70;;;5.00;99.90;;;;;;4420341;32;20176;-75
2020/12/05 04:02:01;;;;;;;22.53;12.63;;;5.00;99.90;;;;;;4418550;32;20155;-75
2020/12/05 04:04:28;;;;;;;23.23;12.43;;;5.00;99.90;;;;;;4416073;32;20201;-75
2020/12/05 04:06:56;;;;;;;23.00;11.87;;;5.00;99.90;;;;;;4419203;32;20216;-74
2020/12/05 04:09:22;;;;;;;25.63;12.70;;;5.00;99.90;;;;;;4426221;32;20178;-74
2020/12/05 04:11:48;;;;;;;22.17;12.13;;;5.10;99.90;;;;;;4425528;32;20494;-73
2020/12/05 04:14:15;;;;;;;24.13;11.93;;;5.10;99.90;;;;;;4415807;32;20532;-75
2020/12/05 04:16:41;;;;;;;24.43;12.93;;;5.10;99.90;;;;;;4424091;32;20222;-74
2020/12/05 04:19:12;;;;;;;23.47;12.30;;;5.10;99.90;;;;;;4411839;32;20478;-72
2020/12/05 04:21:38;;;;;;;25.10;12.57;;;5.10;99.90;;;;;;4409776;32;20223;-73
2020/12/05 04:24:05;;;;;;;24.13;12.63;;;5.10;99.90;;;;;;4408745;32;20196;-73
2020/12/05 04:26:31;;;;;;;25.83;13.73;;;5.10;99.90;;;;;;4411684;32;20143;-73
2020/12/05 04:28:58;;;;;;;22.93;12.47;;;5.10;99.90;;;;;;4411934;32;20159;-73
2020/12/05 04:31:24;;;;;;;24.63;13.00;;;5.10;99.90;;;;;;4409807;32;20578;-73
2020/12/05 04:33:51;;;;;;;24.50;12.23;;;5.00;99.90;;;;;;4411038;32;20183;-73
2020/12/05 04:36:17;;;;;;;24.47;12.83;;;5.00;99.90;;;;;;4419203;32;20171;-73
2020/12/05 04:38:44;;;;;;;24.33;12.83;;;5.00;99.90;;;;;;4410254;32;20226;-73
2020/12/05 04:41:10;;;;;;;23.60;12.40;;;5.00;99.90;;;;;;4409728;32;20150;-73
2020/12/05 04:43:37;;;;;;;24.03;12.33;;;5.00;99.90;;;;;;4410281;32;20196;-73
2020/12/05 04:46:03;;;;;;;25.10;13.07;;;4.90;99.90;;;;;;4410171;32;20177;-74
2020/12/05 04:48:33;;;;;;;25.13;13.10;;;4.90;99.90;;;;;;4411764;32;20143;-72
2020/12/05 04:51:02;;;;;;;23.17;12.40;;;4.90;99.90;;;;;;4410441;32;20500;-72
2020/12/05 04:53:31;;;;;;;27.87;14.00;;;4.90;99.90;;;;;;4410175;32;20500;-72
2020/12/05 04:55:59;;;;;;;24.00;12.77;;;4.90;99.90;;;;;;4410276;32;20147;-73
2020/12/05 04:58:25;;;;;;;26.63;13.43;;;4.90;99.90;;;;;;4410098;32;20397;-73
2020/12/05 05:00:57;;;;;;;26.83;13.90;;;4.90;99.90;;;;;;4410235;32;20198;-72
2020/12/05 05:03:26;;;;;;;26.70;12.87;;;4.90;99.90;;;;;;4409961;32;20139;-73
2020/12/05 05:05:57;;;;;;;27.47;13.50;;;4.90;99.90;;;;;;4409948;32;20193;-73
2020/12/05 05:08:26;;;;;;;27.17;13.77;;;4.90;99.90;;;;;;4409861;32;20291;-73
2020/12/05 05:11:07;;;;;;;25.43;13.33;;;4.80;99.90;;;;;;4409856;32;20461;-73
2020/12/05 05:13:51;;;;;;;27.70;13.73;;;4.90;99.90;;;;;;4409799;32;20143;-72
2020/12/05 05:16:18;;;;;;;26.67;13.27;;;4.80;99.90;;;;;;4411333;32;20162;-72
2020/12/05 05:18:44;;;;;;;26.90;13.57;;;4.90;99.90;;;;;;4411313;32;20194;-73
2020/12/05 05:21:40;;;;;;;29.17;13.70;;;4.80;99.90;;;;;;4420411;32;20170;-73
2020/12/05 05:24:15;;;;;;;28.87;12.83;;;4.90;99.90;;;;;;4409732;32;20215;-73
2020/12/05 05:26:43;;;;;;;27.83;14.00;;;5.00;99.90;;;;;;4419333;32;20170;-73
2020/12/05 05:29:26;;;;;;;29.50;13.93;;;4.90;99.90;;;;;;4417142;32;20201;-72
2020/12/05 05:32:17;;;;;;;25.43;13.83;;;4.90;99.90;;;;;;4410581;32;20487;-73
2020/12/05 05:34:46;;;;;;;26.50;13.53;;;4.90;99.90;;;;;;4426283;32;20181;-72
2020/12/05 05:37:20;;;;;;;28.00;13.40;;;4.90;99.90;;;;;;4424549;32;20413;-72
2020/12/05 05:39:53;;;;;;;27.93;13.57;;;4.90;99.90;;;;;;4415569;32;20163;-72
2020/12/05 05:42:28;;;;;;;27.50;13.23;;;4.90;99.90;;;;;;4409526;32;20188;-73
2020/12/05 05:45:17;;;;;;;27.37;13.60;;;5.00;99.90;;;;;;4409638;32;20491;-72
2020/12/05 05:47:45;;;;;;;27.87;13.67;;;5.00;99.90;;;;;;4410918;32;20207;-72
2020/12/05 05:50:23;;;;;;;27.53;13.60;;;4.90;99.90;;;;;;4409539;32;20185;-73
2020/12/05 05:53:07;;;;;;;27.07;13.93;;;4.90;99.90;;;;;;4409470;32;20178;-73
2020/12/05 05:55:49;;;;;;;29.57;14.50;;;5.00;99.90;;;;;;4409454;32;20174;-73
2020/12/05 05:58:20;;;;;;;26.73;14.17;;;4.90;99.90;;;;;;4410902;32;20143;-73
2020/12/05 06:00:48;;;;;;;27.07;13.80;;;4.90;99.90;;;;;;4410782;32;20189;-73
2020/12/05 06:03:21;;;;;;;28.00;13.83;;;4.90;99.90;;;;;;4410023;32;20212;-73
2020/12/05 06:05:50;;;;;;;26.70;13.93;;;4.90;99.90;;;;;;4409284;32;20411;-73
2020/12/05 06:08:22;;;;;;;26.70;14.07;;;4.80;99.90;;;;;;4409195;32;20473;-73
2020/12/05 06:11:01;;;;;;;27.00;14.00;;;4.80;99.90;;;;;;4409236;32;20358;-72
2020/12/05 06:13:32;;;;;;;28.27;13.97;;;4.80;99.90;;;;;;4410675;32;20235;-74
2020/12/05 06:16:00;;;;;;;25.30;13.73;;;4.90;99.90;;;;;;4408487;32;20164;-73
2020/12/05 06:18:27;;;;;;;27.70;13.83;;;4.70;99.90;;;;;;4409427;32;20177;-73
2020/12/05 06:20:54;;;;;;;28.57;13.50;;;4.70;99.90;;;;;;4408941;32;20135;-74
2020/12/05 06:23:47;;;;;;;29.13;14.40;;;4.70;99.90;;;;;;4408932;32;20493;-73
2020/12/05 06:26:23;;;;;;;27.30;13.97;;;4.60;99.90;;;;;;4410597;32;20144;-73
2020/12/05 06:28:50;;;;;;;28.30;14.73;;;4.60;99.90;;;;;;4410817;32;20139;-73
2020/12/05 06:31:16;;;;;;;27.17;14.07;;;4.60;99.90;;;;;;4409367;32;20167;-74
2020/12/05 06:33:46;;;;;;;28.83;14.67;;;4.60;99.90;;;;;;4412011;32;20135;-73
2020/12/05 06:36:27;;;;;;;27.63;14.03;;;4.50;99.90;;;;;;4411919;32;20190;-73
2020/12/05 06:39:04;;;;;;;33.23;15.53;;;4.50;99.90;;;;;;4412081;32;20231;-72
2020/12/05 06:41:35;;;;;;;32.17;15.47;;;4.60;99.90;;;;;;4411979;32;20162;-73
2020/12/05 06:44:16;;;;;;;28.37;15.20;;;4.60;99.90;;;;;;4411971;32;20517;-74
2020/12/05 06:47:03;;;;;;;28.70;14.30;;;4.60;99.90;;;;;;4412139;32;20198;-73
2020/12/05 06:49:38;;;;;;;29.73;15.43;;;4.50;99.90;;;;;;4411902;32;20164;-73
2020/12/05 06:52:24;;;;;;;28.30;14.80;;;4.50;99.90;;;;;;4411994;32;20190;-74
2020/12/05 06:54:53;;;;;;;30.97;15.50;;;4.50;99.90;;;;;;4413085;32;20458;-74
2020/12/05 06:57:22;;;;;;;32.77;15.90;;;4.50;99.90;;;;;;4412928;32;20469;-73
2020/12/05 06:59:50;;;;;;;28.53;14.87;;;4.50;99.90;;;;;;4412230;32;20155;-71
2020/12/05 07:02:30;;;;;;;28.80;14.80;;;4.50;99.90;;;;;;4413123;32;20144;-72
2020/12/05 07:05:21;;;;;;;32.30;15.87;;;4.50;99.90;;;;;;4413132;32;20143;-72
2020/12/05 07:07:50;;;;;;;31.67;15.97;;;4.50;99.90;;;;;;4413410;32;20148;-72
2020/12/05 07:10:18;;;;;;;29.13;14.90;;;4.50;99.90;;;;;;4411588;32;20166;-73
2020/12/05 07:12:45;;;;;;;29.73;15.50;;;4.60;99.90;;;;;;4413762;32;20282;-73
2020/12/05 07:15:28;;;;;;;29.57;15.37;;;4.60;99.90;;;;;;4426320;32;20139;-73
2020/12/05 07:17:57;;;;;;;32.27;15.90;;;4.70;99.90;;;;;;4426812;32;20178;-72
2020/12/05 07:20:24;;;;;;;30.13;16.10;;;4.70;99.90;;;;;;4427741;32;20505;-72
2020/12/05 07:22:52;;;;;;;34.63;16.77;;;4.80;99.90;;;;;;4426507;32;20207;-73
2020/12/05 07:25:20;;;;;;;33.53;16.03;;;4.80;99.90;;;;;;4428065;32;20458;-73
2020/12/05 07:27:48;;;;;;;34.17;16.23;;;4.90;99.90;;;;;;4426521;32;20136;-73
2020/12/05 07:30:15;;;;;;;29.90;16.00;;;5.00;99.90;;;;;;4427807;32;20509;-74
2020/12/05 07:32:43;;;;;;;30.67;16.27;;;5.10;99.90;;;;;;4426207;32;20522;-73
2020/12/05 07:35:15;;;;;;;31.10;16.33;;;5.20;99.90;;;;;;4426209;32;20147;-72
2020/12/05 07:37:43;;;;;;;32.13;16.53;;;5.20;99.90;;;;;;4426505;32;20139;-74
2020/12/05 07:40:09;;;;;;;31.37;16.53;;;5.30;99.90;;;;;;4426214;32;20187;-73
2020/12/05 07:42:42;;;;;;;33.77;16.60;;;5.30;99.90;;;;;;4425519;32;20411;-72
2020/12/05 07:45:11;;;;;;;31.17;15.90;;;5.30;99.90;;;;;;4426135;32;20156;-72
2020/12/05 07:47:39;;;;;;;34.03;16.67;;;5.40;99.90;;;;;;4426108;32;20151;-73
2020/12/05 07:50:07;;;;;;;31.03;15.93;;;5.40;99.90;;;;;;4426035;32;20158;-72
2020/12/05 07:52:43;;;;;;;33.37;16.57;;;5.50;99.90;;;;;;4427692;32;20449;-73
2020/12/05 07:55:11;;;;;;;31.00;15.07;;;5.60;99.90;;;;;;4426077;32;20161;-73
2020/12/05 07:57:49;;;;;;;36.33;16.90;;;5.60;99.90;;;;;;4425780;32;20135;-72
2020/12/05 08:00:19;;;;;;;30.47;15.80;;;5.70;99.90;;;;;;4427202;32;20178;-72
2020/12/05 08:03:23;;;;;;;30.07;15.87;;;5.70;99.90;;;;;;4425882;32;20447;-73
2020/12/05 08:06:06;;;;;;;30.23;14.97;;;5.80;99.90;;;;;;4425697;32;20169;-74
2020/12/05 08:08:36;;;;;;;30.87;14.90;;;5.90;99.90;;;;;;4425194;32;20167;-72
2020/12/05 08:11:04;;;;;;;35.37;15.50;;;6.00;99.90;;;;;;4426238;32;20194;-73
2020/12/05 08:13:31;;;;;;;34.17;15.73;;;6.10;99.90;;;;;;4427230;32;20168;-72
2020/12/05 08:16:03;;;;;;;31.40;14.97;;;6.10;99.90;;;;;;4427069;32;20151;-72
2020/12/05 08:18:30;;;;;;;31.80;15.90;;;6.20;99.90;;;;;;4425435;32;20166;-74
2020/12/05 08:20:57;;;;;;;28.93;15.30;;;6.30;99.90;;;;;;4425660;32;20147;-73
2020/12/05 08:23:30;;;;;;;27.13;15.17;;;6.40;99.90;;;;;;4425598;32;20136;-73
2020/12/05 08:26:17;;;;;;;28.20;14.57;;;6.60;99.90;;;;;;4426129;32;20453;-73
2020/12/05 08:28:46;;;;;;;26.10;14.80;;;6.80;99.90;;;;;;4426867;32;20182;-73
2020/12/05 08:31:14;;;;;;;30.00;14.63;;;6.90;99.90;;;;;;4424981;32;20166;-72
2020/12/05 08:33:47;;;;;;;26.73;15.10;;;7.00;99.90;;;;;;4426931;32;20169;-73
2020/12/05 08:36:17;;;;;;;27.73;15.00;;;7.10;99.90;;;;;;4424990;32;20157;-73
2020/12/05 08:38:44;;;;;;;27.93;14.57;;;7.20;99.90;;;;;;4424631;32;20147;-72
2020/12/05 08:41:11;;;;;;;30.10;14.93;;;7.20;99.90;;;;;;4425159;32;20169;-75
2020/12/05 08:43:37;;;;;;;28.13;15.27;;;7.20;99.90;;;;;;4425294;32;20192;-73
2020/12/05 08:46:18;;;;;;;26.40;14.63;;;7.20;99.90;;;;;;4425172;32;20171;-73
2020/12/05 08:48:44;;;;;;;31.97;15.60;;;7.30;99.90;;;;;;4426055;32;20360;-72
2020/12/05 08:51:11;;;;;;;27.60;14.23;;;7.30;99.90;;;;;;4412908;32;20223;-72
2020/12/05 08:53:37;;;;;;;28.03;14.70;;;7.40;99.90;;;;;;4406101;32;20198;-70
2020/12/05 08:56:04;;;;;;;27.57;14.30;;;7.50;99.90;;;;;;4409396;32;20226;-72
2020/12/05 08:58:45;;;;;;;26.37;14.27;;;7.50;99.90;;;;;;4409747;32;20461;-71
2020/12/05 09:01:12;;;;;;;27.60;14.43;;;7.60;99.90;;;;;;4411039;32;20147;-72
2020/12/05 09:03:39;;;;;;;27.23;14.20;;;7.60;99.90;;;;;;4411017;32;20218;-73
2020/12/05 09:06:06;;;;;;;27.40;14.17;;;7.70;99.90;;;;;;4411225;32;20201;-71
2020/12/05 09:08:33;;;;;;;25.40;13.70;;;7.70;99.90;;;;;;4411259;32;20148;-73
2020/12/05 09:11:00;;;;;;;26.43;13.43;;;7.80;99.90;;;;;;4411191;32;20149;-72
2020/12/05 09:13:27;;;;;;;27.13;14.10;;;7.90;99.90;;;;;;4411055;32;20210;-72
2020/12/05 09:16:01;;;;;;;25.83;13.33;;;8.00;99.70;;;;;;4409426;32;20157;-73
2020/12/05 09:18:41;;;;;;;23.73;12.97;;;8.10;99.30;;;;;;4423243;32;20573;-71
2020/12/05 09:21:20;;;;;;;25.03;13.27;;;8.20;98.70;;;;;;4422613;32;20492;-71
2020/12/05 09:24:04;;;;;;;24.67;13.90;;;8.20;98.50;;;;;;4424451;32;20528;-72
2020/12/05 09:26:35;;;;;;;24.30;13.47;;;8.30;98.00;;;;;;4410003;32;20141;-73
2020/12/05 09:29:02;;;;;;;26.60;12.93;;;8.40;97.90;;;;;;4421393;32;20224;-73
2020/12/05 09:31:28;;;;;;;25.00;12.77;;;8.50;97.40;;;;;;4425295;32;20184;-72
2020/12/05 09:33:55;;;;;;;24.60;13.40;;;8.50;97.10;;;;;;4426017;32;20462;-72
2020/12/05 09:36:21;;;;;;;24.83;13.07;;;8.60;97.00;;;;;;4417667;32;20178;-73
2020/12/05 09:38:48;;;;;;;24.93;13.23;;;8.70;96.80;;;;;;4410520;32;20397;-73
2020/12/05 09:41:14;;;;;;;25.73;13.40;;;8.70;96.50;;;;;;4409302;32;20148;-73
2020/12/05 09:43:41;;;;;;;25.37;13.40;;;8.70;96.50;;;;;;4409422;32;20550;-72
2020/12/05 09:46:08;;;;;;;24.07;12.70;;;8.70;96.30;;;;;;4408971;32;20227;-73
2020/12/05 09:48:34;;;;;;;24.70;13.00;;;8.80;96.40;;;;;;4408578;32;20214;-72
2020/12/05 09:51:01;;;;;;;26.23;13.60;;;8.90;96.20;;;;;;4409493;32;20182;-71
2020/12/05 09:53:27;;;;;;;27.50;13.83;;;8.80;96.10;;;;;;4410698;32;20151;-74
2020/12/05 09:55:54;;;;;;;25.93;13.90;;;8.80;96.10;;;;;;4409030;32;20153;-71
2020/12/05 09:58:20;;;;;;;25.10;13.37;;;8.90;96.20;;;;;;4410374;32;20142;-72
2020/12/05 10:00:46;;;;;;;25.57;13.60;;;8.80;96.20;;;;;;4409906;32;20493;-72
2020/12/05 10:03:13;;;;;;;27.13;14.10;;;8.90;96.20;;;;;;4410666;32;20163;-72
2020/12/05 10:05:39;;;;;;;26.33;13.77;;;8.90;95.90;;;;;;4412097;32;20221;-73
2020/12/05 10:08:05;;;;;;;24.37;13.77;;;8.90;96.00;;;;;;4414444;32;20575;-73
2020/12/05 10:10:32;;;;;;;27.27;13.23;;;8.90;96.00;;;;;;4422520;32;20156;-74
2020/12/05 10:12:59;;;;;;;24.53;13.17;;;9.00;95.90;;;;;;4419605;32;20187;-75
2020/12/05 10:15:25;;;;;;;25.67;14.30;;;8.90;96.50;;;;;;4416471;32;20249;-75
2020/12/05 10:17:52;;;;;;;26.00;13.73;;;9.00;96.00;;;;;;4414452;32;20218;-73
2020/12/05 10:20:18;;;;;;;25.60;12.47;;;9.00;96.00;;;;;;4422115;32;20215;-74
2020/12/05 10:22:45;;;;;;;23.37;12.60;;;9.10;96.00;;;;;;4411236;32;20158;-73
2020/12/05 10:25:11;;;;;;;23.63;12.83;;;9.10;95.80;;;;;;4418738;32;20176;-73
2020/12/05 10:27:38;;;;;;;25.50;13.67;;;9.20;95.80;;;;;;4416798;32;20214;-74
2020/12/05 10:30:04;;;;;;;24.00;13.03;;;9.30;95.60;;;;;;4412537;32;20146;-74
2020/12/05 10:32:31;;;;;;;25.17;13.03;;;9.30;95.70;;;;;;4420748;32;20472;-74
2020/12/05 10:34:57;;;;;;;24.83;13.20;;;9.40;95.80;;;;;;4413595;32;20532;-73
2020/12/05 10:37:23;;;;;;;23.77;12.90;;;9.40;95.50;;;;;;4416918;32;20553;-73
2020/12/05 10:39:50;;;;;;;21.50;12.63;;;9.50;95.10;;;;;;4419437;32;20206;-76
2020/12/05 10:42:17;;;;;;;23.10;12.70;;;9.60;95.10;;;;;;4411102;32;20162;-72
2020/12/05 10:44:43;;;;;;;22.10;11.93;;;9.70;94.60;;;;;;4420736;32;20168;-74
2020/12/05 10:47:09;;;;;;;21.17;12.53;;;9.70;94.50;;;;;;4412480;32;20458;-73
2020/12/05 10:49:36;;;;;;;24.50;12.80;;;9.80;94.40;;;;;;4415314;32;20551;-73
2020/12/05 10:52:02;;;;;;;23.27;12.37;;;9.90;94.20;;;;;;4419907;32;20182;-75
2020/12/05 10:54:29;;;;;;;21.53;11.80;;;10.00;93.90;;;;;;4412481;32;20205;-75
2020/12/05 10:56:56;;;;;;;22.90;12.00;;;10.00;93.90;;;;;;4421274;32;20426;-74
2020/12/05 10:59:23;;;;;;;20.97;12.07;;;10.20;93.50;;;;;;4416174;32;20151;-74
2020/12/05 11:01:49;;;;;;;21.23;11.70;;;10.20;93.10;;;;;;4414303;32;20154;-75
2020/12/05 11:04:16;;;;;;;21.03;11.53;;;10.30;93.20;;;;;;4421302;32;20204;-74
2020/12/05 11:06:42;;;;;;;22.73;11.93;;;10.40;92.80;;;;;;4410818;32;20207;-74
2020/12/05 11:09:08;;;;;;;21.10;11.57;;;10.50;92.40;;;;;;4419037;32;20153;-75
2020/12/05 11:11:35;;;;;;;20.20;11.43;;;10.60;92.60;;;;;;4417030;32;20226;-73
2020/12/05 11:14:01;;;;;;;19.60;11.13;;;10.60;92.30;;;;;;4414021;32;20170;-73
2020/12/05 11:16:28;;;;;;;22.17;11.90;;;10.70;92.10;;;;;;4420445;32;20154;-74
2020/12/05 11:18:54;;;;;;;23.37;12.17;;;10.80;92.00;;;;;;4415977;32;20203;-71
2020/12/05 11:21:21;;;;;;;20.13;11.57;;;10.80;91.70;;;;;;4419758;32;20178;-72
2020/12/05 11:23:47;;;;;;;19.73;11.50;;;10.80;91.70;;;;;;4420022;32;20154;-72
2020/12/05 11:26:21;;;;;;;20.67;11.50;;;10.90;91.60;;;;;;4413710;32;20227;-72
2020/12/05 11:28:49;;;;;;;22.50;11.20;;;10.90;91.50;;;;;;4424073;32;20157;-74
2020/12/05 11:31:16;;;;;;;21.67;11.73;;;10.90;91.80;;;;;;4417241;32;20232;-72
2020/12/05 11:33:42;;;;;;;20.20;11.80;;;11.00;91.40;;;;;;4417083;32;20430;-74
2020/12/05 11:36:09;;;;;;;21.50;11.40;;;11.30;90.80;;;;;;4422147;32;20171;-72
2020/12/05 11:38:36;;;;;;;20.43;11.43;;;11.70;90.30;;;;;;4413087;32;20235;-71
2020/12/05 11:41:03;;;;;;;19.83;10.87;;;12.20;88.50;;;;;;4421516;32;20155;-71
2020/12/05 11:43:29;;;;;;;20.77;11.63;;;12.30;85.80;;;;;;4411243;32;20171;-73
2020/12/05 11:45:55;;;;;;;20.30;11.23;;;12.40;85.30;;;;;;4417020;32;20544;-73
2020/12/05 11:48:22;;;;;;;20.47;11.10;;;12.70;85.00;;;;;;4425916;32;20512;-73
2020/12/05 11:50:48;;;;;;;18.77;10.83;;;12.80;83.50;;;;;;4413449;32;20147;-73
2020/12/05 11:53:15;;;;;;;20.00;11.23;;;12.80;82.50;;;;;;4409924;32;20258;-74
2020/12/05 11:55:41;;;;;;;21.53;11.53;;;12.70;83.30;;;;;;4408074;32;20459;-78
2020/12/05 11:58:11;;;;;;;20.03;11.50;;;12.70;83.10;;;;;;4411169;32;20146;-79
2020/12/05 12:00:41;;;;;;;19.47;11.37;;;12.60;83.20;;;;;;4410464;32;20240;-77
2020/12/05 12:03:11;;;;;;;20.17;11.83;;;12.30;85.30;;;;;;4423992;32;20216;-77
2020/12/05 12:05:37;;;;;;;20.13;10.80;;;12.00;85.70;;;;;;4414625;32;20151;-77
2020/12/05 12:08:04;;;;;;;20.70;11.03;;;11.90;86.30;;;;;;4418688;32;20512;-77
2020/12/05 12:10:30;;;;;;;22.27;11.83;;;11.90;86.60;;;;;;4410402;32;20461;-75
2020/12/05 12:12:56;;;;;;;20.33;11.87;;;11.90;86.80;;;;;;4410548;32;20159;-75
2020/12/05 12:15:23;;;;;;;21.80;11.17;;;11.80;87.30;;;;;;4408736;32;20488;-76
2020/12/05 12:17:53;;;;;;;18.67;11.07;;;11.70;88.00;;;;;;4410189;32;20373;-75
2020/12/05 12:20:19;;;;;;;22.00;12.23;;;11.70;88.30;;;;;;4410553;32;20195;-75
2020/12/05 12:22:46;;;;;;;22.50;11.80;;;11.70;88.50;;;;;;4409638;32;20363;-76
2020/12/05 12:25:12;;;;;;;20.83;12.03;;;11.60;88.70;;;;;;4411458;32;20435;-75
2020/12/05 12:27:39;;;;;;;19.20;11.13;;;11.60;89.10;;;;;;4409735;32;20414;-74
2020/12/05 12:30:05;;;;;;;20.10;11.33;;;11.60;89.10;;;;;;4409975;32;20217;-75
2020/12/05 12:32:32;;;;;;;22.10;11.97;;;11.70;89.10;;;;;;4410050;32;20239;-75
2020/12/05 12:34:58;;;;;;;22.30;11.90;;;11.60;89.30;;;;;;4410672;32;20458;-75
2020/12/05 12:37:24;;;;;;;19.53;11.53;;;11.60;89.60;;;;;;4409559;32;20193;-75
2020/12/05 12:39:51;;;;;;;23.70;11.97;;;11.50;89.70;;;;;;4409677;32;20170;-76
2020/12/05 12:42:17;;;;;;;23.60;11.60;;;11.60;89.70;;;;;;4411774;32;20147;-76
2020/12/05 12:44:44;;;;;;;23.73;12.07;;;11.60;89.70;;;;;;4410059;32;20143;-76